aviador You're here:

LFPO Decoded Metar

PARIS ORLY in FRANCE
Report Time2017-09-25 04:00:00
UTC Time2017-09-25 04:12:31
Flight Rules vfr VFR
Wind100° at 03 kt
W.Decomp.*RWY 08: 2.8 kt HW 1.1 kt RCW
RWY 06: 2.3 kt HW 2.0 kt RCW
RWY 02: 0.5 kt HW 3.0 kt RCW
W.Rank100° ranks 29
Current wind is below 100° avg. (5.3)
Visibility9999 m
Phenomena:N/A
Clouds:N/A
Expected CloudBase > 1,600 ft AGL from Temp-Dew spread
CeilingNone
Temp14°C (ISA -0)
Dew Point10°C (77% RH)
AAT13.0°C
QNH1017 hPa
Density Alt302 ft
Elevation315 ft
Report Wrong Elevation
Raw Report
METAR LFPO 250400Z 10003KT CAVOK 14/10 Q1017 NOSIG=

Extra information for LFPO:More info

Metar Taf Metar & Taf Last 4 Metars F.Rules Stats Wind Profile Meteogram Temp Stats Airport Information Weather charts Add Link Nearby VenuesMetar ALERT Operation Metar Decoded Social comments